TNCM/SXM METAR and TAF weather

Enter ICAO airport designator
Station Type Date Time Source
TNCM METAR 2024/04/23 05:00 UTC NOAA

TNCM 230500Z 09009KT 9999 FEW018 27/25 Q1016


Station Type Date Time Source
TNCM Decoded METAR 2024/04/23 05:00 UTC NOAA

Juliana Airport, Saint Maarten, Netherlands Antilles (TNCM) 18-03N 063-07W 9M
Apr 23, 2024 - 01:00 AM EDT / 2024.04.23 0500 UTC
Wind: from the E (090 degrees) at 10 MPH (9 KT):0
Visibility: greater than 7 mile(s):0
Sky conditions: mostly clear
Temperature: 80 F (27 C)
Dew Point: 77 F (25 C)
Relative Humidity: 88%
Pressure (altimeter): 30.00 in. Hg (1016 hPa)
ob: TNCM 230500Z 09009KT 9999 FEW018 27/25 Q1016
cycle: 5

Station Type Date Time Source
TNCM TAF 2024/04/22 18:48 UTC NOAA